sensor_id;sensor_type;location;lat;lon;timestamp;pressure;altitude;pressure_sealevel;temperature;humidity
6532;BME280;3299;42.004;24.868;2022-12-29T00:02:12;99259.44;;;4.75;100.00
6532;BME280;3299;42.004;24.868;2022-12-29T00:04:38;99321.38;;;5.15;100.00
6532;BME280;3299;42.004;24.868;2022-12-29T00:07:04;99282.19;;;4.84;100.00
6532;BME280;3299;42.004;24.868;2022-12-29T00:09:31;99271.44;;;4.47;100.00
6532;BME280;3299;42.004;24.868;2022-12-29T00:11:57;99322.34;;;4.85;100.00
6532;BME280;3299;42.004;24.868;2022-12-29T00:14:22;99274.88;;;4.46;100.00
6532;BME280;3299;42.004;24.868;2022-12-29T00:17:06;99327.72;;;4.78;100.00
6532;BME280;3299;42.004;24.868;2022-12-29T00:19:32;99322.69;;;4.75;100.00
6532;BME280;3299;42.004;24.868;2022-12-29T00:22:16;99311.88;;;4.65;100.00
6532;BME280;3299;42.004;24.868;2022-12-29T00:25:00;99325.25;;;4.75;100.00
6532;BME280;3299;42.004;24.868;2022-12-29T00:27:44;99289.34;;;4.49;100.00
6532;BME280;3299;42.004;24.868;2022-12-29T00:30:28;99327.06;;;4.71;100.00
6532;BME280;3299;42.004;24.868;2022-12-29T00:33:18;99362.50;;;4.86;100.00
6532;BME280;3299;42.004;24.868;2022-12-29T00:38:32;99372.31;;;4.72;100.00
6532;BME280;3299;42.004;24.868;2022-12-29T00:41:17;99320.81;;;4.52;100.00
6532;BME280;3299;42.004;24.868;2022-12-29T00:44:01;99388.13;;;4.86;100.00
6532;BME280;3299;42.004;24.868;2022-12-29T00:46:36;99383.75;;;4.90;100.00
6532;BME280;3299;42.004;24.868;2022-12-29T00:49:02;99328.13;;;4.64;100.00
6532;BME280;3299;42.004;24.868;2022-12-29T00:51:46;99329.66;;;4.70;100.00
6532;BME280;3299;42.004;24.868;2022-12-29T00:54:12;99378.47;;;4.94;100.00
6532;BME280;3299;42.004;24.868;2022-12-29T00:56:38;99378.63;;;4.90;100.00
6532;BME280;3299;42.004;24.868;2022-12-29T00:59:06;99387.34;;;5.12;100.00
6532;BME280;3299;42.004;24.868;2022-12-29T01:01:32;99330.59;;;4.95;100.00
6532;BME280;3299;42.004;24.868;2022-12-29T01:03:58;99332.41;;;4.91;100.00
6532;BME280;3299;42.004;24.868;2022-12-29T01:06:24;99397.28;;;5.21;100.00
6532;BME280;3299;42.004;24.868;2022-12-29T01:08:50;99355.31;;;4.97;100.00
6532;BME280;3299;42.004;24.868;2022-12-29T01:11:35;99385.00;;;5.04;100.00
6532;BME280;3299;42.004;24.868;2022-12-29T01:14:01;99300.13;;;4.58;100.00
6532;BME280;3299;42.004;24.868;2022-12-29T01:16:26;99397.59;;;5.12;100.00
6532;BME280;3299;42.004;24.868;2022-12-29T01:18:51;99386.88;;;4.99;100.00
6532;BME280;3299;42.004;24.868;2022-12-29T01:21:17;99329.81;;;4.65;100.00
6532;BME280;3299;42.004;24.868;2022-12-29T01:23:42;99380.66;;;5.06;100.00
6532;BME280;3299;42.004;24.868;2022-12-29T01:26:09;99387.19;;;5.16;100.00
6532;BME280;3299;42.004;24.868;2022-12-29T01:28:35;99347.66;;;4.96;100.00
6532;BME280;3299;42.004;24.868;2022-12-29T01:31:01;99320.28;;;4.96;100.00
6532;BME280;3299;42.004;24.868;2022-12-29T01:33:26;99332.91;;;5.02;100.00
6532;BME280;3299;42.004;24.868;2022-12-29T01:35:52;99321.56;;;4.83;100.00
6532;BME280;3299;42.004;24.868;2022-12-29T01:38:17;99383.81;;;5.14;100.00
6532;BME280;3299;42.004;24.868;2022-12-29T01:40:44;99374.59;;;5.09;100.00
6532;BME280;3299;42.004;24.868;2022-12-29T01:43:13;99340.09;;;4.91;100.00
6532;BME280;3299;42.004;24.868;2022-12-29T01:45:44;99358.75;;;4.96;100.00
6532;BME280;3299;42.004;24.868;2022-12-29T01:48:12;99362.00;;;5.01;100.00
6532;BME280;3299;42.004;24.868;2022-12-29T01:50:45;99359.16;;;5.10;100.00
6532;BME280;3299;42.004;24.868;2022-12-29T01:53:35;99319.72;;;4.87;100.00
6532;BME280;3299;42.004;24.868;2022-12-29T01:56:04;99349.88;;;5.06;100.00
6532;BME280;3299;42.004;24.868;2022-12-29T01:58:37;99354.13;;;5.07;100.00
6532;BME280;3299;42.004;24.868;2022-12-29T02:01:05;99351.28;;;5.16;100.00
6532;BME280;3299;42.004;24.868;2022-12-29T02:03:31;99355.56;;;5.16;100.00
6532;BME280;3299;42.004;24.868;2022-12-29T02:06:11;99291.97;;;4.73;100.00
6532;BME280;3299;42.004;24.868;2022-12-29T02:08:39;99348.91;;;5.10;100.00
6532;BME280;3299;42.004;24.868;2022-12-29T02:11:05;99326.22;;;4.98;100.00
6532;BME280;3299;42.004;24.868;2022-12-29T02:13:32;99349.69;;;5.12;100.00
6532;BME280;3299;42.004;24.868;2022-12-29T02:16:07;99347.81;;;5.17;100.00
6532;BME280;3299;42.004;24.868;2022-12-29T02:24:35;99340.59;;;5.02;100.00
6532;BME280;3299;42.004;24.868;2022-12-29T02:30:08;99324.84;;;4.87;100.00
6532;BME280;3299;42.004;24.868;2022-12-29T02:32:50;99253.38;;;4.50;100.00
6532;BME280;3299;42.004;24.868;2022-12-29T02:41:19;99255.81;;;4.55;100.00
6532;BME280;3299;42.004;24.868;2022-12-29T02:46:44;99311.63;;;4.73;100.00
6532;BME280;3299;42.004;24.868;2022-12-29T02:49:15;99309.22;;;4.68;100.00
6532;BME280;3299;42.004;24.868;2022-12-29T02:51:52;99231.94;;;4.27;100.00
6532;BME280;3299;42.004;24.868;2022-12-29T02:54:21;99288.94;;;4.61;100.00
6532;BME280;3299;42.004;24.868;2022-12-29T02:57:12;99294.66;;;4.69;100.00
6532;BME280;3299;42.004;24.868;2022-12-29T02:59:41;99238.69;;;4.29;100.00
6532;BME280;3299;42.004;24.868;2022-12-29T03:08:23;99290.78;;;4.57;100.00
6532;BME280;3299;42.004;24.868;2022-12-29T03:13:28;99293.16;;;4.63;100.00
6532;BME280;3299;42.004;24.868;2022-12-29T03:16:24;99235.22;;;4.03;100.00
6532;BME280;3299;42.004;24.868;2022-12-29T03:19:00;99300.25;;;4.26;100.00
6532;BME280;3299;42.004;24.868;2022-12-29T03:21:38;99287.94;;;4.10;100.00
6532;BME280;3299;42.004;24.868;2022-12-29T03:24:28;99233.56;;;3.73;100.00
6532;BME280;3299;42.004;24.868;2022-12-29T03:26:57;99238.25;;;3.86;100.00
6532;BME280;3299;42.004;24.868;2022-12-29T03:29:23;99230.06;;;4.04;100.00
6532;BME280;3299;42.004;24.868;2022-12-29T03:31:51;99233.22;;;4.12;100.00
6532;BME280;3299;42.004;24.868;2022-12-29T03:34:20;99268.34;;;4.36;100.00
6532;BME280;3299;42.004;24.868;2022-12-29T03:36:54;99230.56;;;4.15;100.00
6532;BME280;3299;42.004;24.868;2022-12-29T03:39:23;99227.81;;;4.21;100.00
6532;BME280;3299;42.004;24.868;2022-12-29T03:41:52;99240.03;;;4.13;100.00
6532;BME280;3299;42.004;24.868;2022-12-29T03:44:20;99228.88;;;4.14;100.00
6532;BME280;3299;42.004;24.868;2022-12-29T03:46:46;99223.00;;;4.12;100.00
6532;BME280;3299;42.004;24.868;2022-12-29T03:49:11;99278.53;;;4.39;100.00
6532;BME280;3299;42.004;24.868;2022-12-29T03:51:36;99238.34;;;4.12;100.00
6532;BME280;3299;42.004;24.868;2022-12-29T03:54:02;99235.81;;;4.11;100.00
6532;BME280;3299;42.004;24.868;2022-12-29T03:56:27;99283.03;;;4.31;100.00
6532;BME280;3299;42.004;24.868;2022-12-29T03:58:53;99278.84;;;4.27;100.00
6532;BME280;3299;42.004;24.868;2022-12-29T04:01:19;99283.53;;;4.15;100.00
6532;BME280;3299;42.004;24.868;2022-12-29T04:03:44;99224.06;;;3.76;100.00
6532;BME280;3299;42.004;24.868;2022-12-29T04:06:10;99212.66;;;3.57;100.00
6532;BME280;3299;42.004;24.868;2022-12-29T04:08:35;99222.88;;;3.57;100.00
6532;BME280;3299;42.004;24.868;2022-12-29T04:11:00;99275.78;;;3.87;100.00
6532;BME280;3299;42.004;24.868;2022-12-29T04:13:26;99284.94;;;3.96;100.00
6532;BME280;3299;42.004;24.868;2022-12-29T04:15:51;99176.72;;;3.31;100.00
6532;BME280;3299;42.004;24.868;2022-12-29T04:18:16;99191.28;;;3.29;100.00
6532;BME280;3299;42.004;24.868;2022-12-29T04:20:44;99205.56;;;3.38;100.00
6532;BME280;3299;42.004;24.868;2022-12-29T04:23:24;99229.09;;;3.49;100.00
6532;BME280;3299;42.004;24.868;2022-12-29T04:25:50;99272.63;;;3.78;100.00
6532;BME280;3299;42.004;24.868;2022-12-29T04:28:15;99276.44;;;3.63;100.00
6532;BME280;3299;42.004;24.868;2022-12-29T04:30:42;99170.84;;;2.97;100.00
6532;BME280;3299;42.004;24.868;2022-12-29T04:33:08;99237.91;;;3.39;100.00
6532;BME280;3299;42.004;24.868;2022-12-29T04:35:34;99285.72;;;3.67;100.00
6532;BME280;3299;42.004;24.868;2022-12-29T04:37:59;99289.13;;;3.68;100.00
6532;BME280;3299;42.004;24.868;2022-12-29T04:40:25;99231.53;;;3.53;100.00
6532;BME280;3299;42.004;24.868;2022-12-29T04:42:50;99292.19;;;3.80;100.00
6532;BME280;3299;42.004;24.868;2022-12-29T04:45:16;99199.28;;;3.17;100.00
6532;BME280;3299;42.004;24.868;2022-12-29T04:47:42;99253.13;;;3.43;100.00
6532;BME280;3299;42.004;24.868;2022-12-29T04:50:08;99263.75;;;3.60;100.00
6532;BME280;3299;42.004;24.868;2022-12-29T04:52:33;99264.31;;;3.71;100.00
6532;BME280;3299;42.004;24.868;2022-12-29T04:54:59;99304.59;;;3.94;100.00
6532;BME280;3299;42.004;24.868;2022-12-29T04:57:25;99308.72;;;3.99;100.00
6532;BME280;3299;42.004;24.868;2022-12-29T04:59:50;99275.50;;;3.67;100.00
6532;BME280;3299;42.004;24.868;2022-12-29T05:02:16;99297.41;;;3.77;100.00
6532;BME280;3299;42.004;24.868;2022-12-29T05:04:42;99302.41;;;3.80;100.00
6532;BME280;3299;42.004;24.868;2022-12-29T05:07:07;99262.69;;;3.67;100.00
6532;BME280;3299;42.004;24.868;2022-12-29T05:09:33;99329.06;;;4.04;100.00
6532;BME280;3299;42.004;24.868;2022-12-29T05:11:58;99328.16;;;4.06;100.00
6532;BME280;3299;42.004;24.868;2022-12-29T05:14:23;99277.06;;;3.73;100.00
6532;BME280;3299;42.004;24.868;2022-12-29T05:16:49;99313.09;;;3.96;100.00
6532;BME280;3299;42.004;24.868;2022-12-29T05:19:14;99341.88;;;4.04;100.00
6532;BME280;3299;42.004;24.868;2022-12-29T05:21:40;99280.38;;;3.76;100.00
6532;BME280;3299;42.004;24.868;2022-12-29T05:24:05;99232.88;;;3.36;100.00
6532;BME280;3299;42.004;24.868;2022-12-29T05:26:31;99318.63;;;3.81;100.00
6532;BME280;3299;42.004;24.868;2022-12-29T05:28:56;99340.56;;;3.89;100.00
6532;BME280;3299;42.004;24.868;2022-12-29T05:31:21;99347.16;;;3.98;100.00
6532;BME280;3299;42.004;24.868;2022-12-29T05:33:47;99342.06;;;3.98;100.00
6532;BME280;3299;42.004;24.868;2022-12-29T05:36:12;99345.13;;;4.10;100.00
6532;BME280;3299;42.004;24.868;2022-12-29T05:38:38;99341.94;;;4.01;100.00
6532;BME280;3299;42.004;24.868;2022-12-29T05:41:03;99314.63;;;3.71;100.00
6532;BME280;3299;42.004;24.868;2022-12-29T05:43:29;99285.44;;;3.47;100.00
6532;BME280;3299;42.004;24.868;2022-12-29T05:45:54;99273.88;;;3.33;100.00
6532;BME280;3299;42.004;24.868;2022-12-29T05:48:20;99313.88;;;3.67;100.00
6532;BME280;3299;42.004;24.868;2022-12-29T05:50:49;99271.03;;;3.43;100.00
6532;BME280;3299;42.004;24.868;2022-12-29T05:53:16;99311.16;;;3.41;100.00
6532;BME280;3299;42.004;24.868;2022-12-29T05:55:42;99274.19;;;3.21;100.00
6532;BME280;3299;42.004;24.868;2022-12-29T05:58:08;99258.75;;;3.24;100.00
6532;BME280;3299;42.004;24.868;2022-12-29T06:00:33;99319.09;;;3.64;100.00
6532;BME280;3299;42.004;24.868;2022-12-29T06:02:59;99268.31;;;3.49;100.00
6532;BME280;3299;42.004;24.868;2022-12-29T06:05:24;99260.75;;;3.46;100.00
6532;BME280;3299;42.004;24.868;2022-12-29T06:07:50;99289.41;;;3.57;100.00
6532;BME280;3299;42.004;24.868;2022-12-29T06:10:15;99295.59;;;3.81;100.00
6532;BME280;3299;42.004;24.868;2022-12-29T06:12:40;99235.91;;;3.50;100.00
6532;BME280;3299;42.004;24.868;2022-12-29T06:15:06;99237.31;;;3.60;100.00
6532;BME280;3299;42.004;24.868;2022-12-29T06:17:32;99277.50;;;3.87;100.00
6532;BME280;3299;42.004;24.868;2022-12-29T06:19:57;99300.88;;;4.05;100.00
6532;BME280;3299;42.004;24.868;2022-12-29T06:22:23;99299.13;;;4.06;100.00
6532;BME280;3299;42.004;24.868;2022-12-29T06:24:49;99226.16;;;3.62;100.00
6532;BME280;3299;42.004;24.868;2022-12-29T06:27:14;99299.25;;;4.03;100.00
6532;BME280;3299;42.004;24.868;2022-12-29T06:29:40;99240.06;;;3.83;100.00
6532;BME280;3299;42.004;24.868;2022-12-29T06:32:06;99229.34;;;3.70;100.00
6532;BME280;3299;42.004;24.868;2022-12-29T06:34:31;99231.81;;;3.73;100.00
6532;BME280;3299;42.004;24.868;2022-12-29T06:36:56;99308.22;;;4.17;100.00
6532;BME280;3299;42.004;24.868;2022-12-29T06:39:22;99257.13;;;3.84;100.00
6532;BME280;3299;42.004;24.868;2022-12-29T06:41:47;99252.16;;;3.78;100.00
6532;BME280;3299;42.004;24.868;2022-12-29T06:44:13;99326.84;;;4.22;100.00
6532;BME280;3299;42.004;24.868;2022-12-29T06:46:38;99270.69;;;3.87;100.00
6532;BME280;3299;42.004;24.868;2022-12-29T06:49:03;99266.41;;;3.86;100.00
6532;BME280;3299;42.004;24.868;2022-12-29T06:51:29;99220.97;;;3.65;100.00
6532;BME280;3299;42.004;24.868;2022-12-29T06:53:54;99289.81;;;4.03;100.00
6532;BME280;3299;42.004;24.868;2022-12-29T06:56:19;99334.72;;;4.16;100.00
6532;BME280;3299;42.004;24.868;2022-12-29T06:58:45;99271.53;;;3.86;100.00
6532;BME280;3299;42.004;24.868;2022-12-29T07:01:10;99341.84;;;4.34;100.00
6532;BME280;3299;42.004;24.868;2022-12-29T07:03:36;99329.16;;;4.30;100.00
6532;BME280;3299;42.004;24.868;2022-12-29T07:06:01;99339.91;;;4.42;100.00
6532;BME280;3299;42.004;24.868;2022-12-29T07:08:26;99332.19;;;4.44;100.00
6532;BME280;3299;42.004;24.868;2022-12-29T07:10:52;99322.84;;;4.41;100.00
6532;BME280;3299;42.004;24.868;2022-12-29T07:13:18;99269.88;;;4.14;100.00
6532;BME280;3299;42.004;24.868;2022-12-29T07:15:43;99339.16;;;4.66;100.00
6532;BME280;3299;42.004;24.868;2022-12-29T07:18:08;99347.53;;;4.73;100.00
6532;BME280;3299;42.004;24.868;2022-12-29T07:20:34;99330.22;;;4.79;100.00
6532;BME280;3299;42.004;24.868;2022-12-29T07:22:59;99351.66;;;5.04;100.00
6532;BME280;3299;42.004;24.868;2022-12-29T07:25:25;99346.88;;;5.20;100.00
6532;BME280;3299;42.004;24.868;2022-12-29T07:27:50;99327.56;;;5.08;100.00
6532;BME280;3299;42.004;24.868;2022-12-29T07:30:16;99356.09;;;5.25;100.00
6532;BME280;3299;42.004;24.868;2022-12-29T07:32:41;99271.06;;;4.85;100.00
6532;BME280;3299;42.004;24.868;2022-12-29T07:35:08;99341.22;;;5.35;100.00
6532;BME280;3299;42.004;24.868;2022-12-29T07:37:34;99304.50;;;5.34;100.00
6532;BME280;3299;42.004;24.868;2022-12-29T07:40:00;99345.47;;;5.62;100.00
6532;BME280;3299;42.004;24.868;2022-12-29T07:42:26;99351.25;;;5.68;100.00
6532;BME280;3299;42.004;24.868;2022-12-29T07:44:51;99363.56;;;5.83;100.00
6532;BME280;3299;42.004;24.868;2022-12-29T07:47:17;99318.53;;;5.73;100.00
6532;BME280;3299;42.004;24.868;2022-12-29T07:49:42;99316.91;;;5.95;100.00
6532;BME280;3299;42.004;24.868;2022-12-29T07:52:07;99341.16;;;6.11;100.00
6532;BME280;3299;42.004;24.868;2022-12-29T07:54:33;99313.25;;;6.02;100.00
6532;BME280;3299;42.004;24.868;2022-12-29T07:56:58;99365.69;;;6.43;100.00
6532;BME280;3299;42.004;24.868;2022-12-29T07:59:25;99347.22;;;6.33;100.00
6532;BME280;3299;42.004;24.868;2022-12-29T08:01:51;99318.72;;;6.16;100.00
6532;BME280;3299;42.004;24.868;2022-12-29T08:04:17;99325.19;;;6.26;100.00
6532;BME280;3299;42.004;24.868;2022-12-29T08:06:42;99364.81;;;6.65;100.00
6532;BME280;3299;42.004;24.868;2022-12-29T08:09:08;99350.88;;;6.72;100.00
6532;BME280;3299;42.004;24.868;2022-12-29T08:11:33;99322.81;;;6.66;100.00
6532;BME280;3299;42.004;24.868;2022-12-29T08:13:59;99331.78;;;6.78;100.00
6532;BME280;3299;42.004;24.868;2022-12-29T08:16:24;99331.97;;;6.95;100.00
6532;BME280;3299;42.004;24.868;2022-12-29T08:18:49;99341.66;;;7.10;100.00
6532;BME280;3299;42.004;24.868;2022-12-29T08:21:15;99341.88;;;7.25;100.00
6532;BME280;3299;42.004;24.868;2022-12-29T08:23:40;99372.69;;;7.48;100.00
6532;BME280;3299;42.004;24.868;2022-12-29T08:26:06;99384.44;;;7.54;100.00
6532;BME280;3299;42.004;24.868;2022-12-29T08:28:32;99377.31;;;7.60;100.00
6532;BME280;3299;42.004;24.868;2022-12-29T08:30:59;99339.38;;;7.44;100.00
6532;BME280;3299;42.004;24.868;2022-12-29T08:33:25;99376.50;;;7.80;98.98
6532;BME280;3299;42.004;24.868;2022-12-29T08:35:50;99325.81;;;7.60;97.04
6532;BME280;3299;42.004;24.868;2022-12-29T08:38:16;99255.97;;;7.28;96.06
6532;BME280;3299;42.004;24.868;2022-12-29T08:40:42;99359.41;;;7.97;92.46
6532;BME280;3299;42.004;24.868;2022-12-29T08:43:07;99375.03;;;8.13;91.40
6532;BME280;3299;42.004;24.868;2022-12-29T08:45:33;99370.47;;;8.19;91.26
6532;BME280;3299;42.004;24.868;2022-12-29T08:47:58;99371.63;;;8.32;90.48
6532;BME280;3299;42.004;24.868;2022-12-29T08:50:24;99318.22;;;8.16;89.39
6532;BME280;3299;42.004;24.868;2022-12-29T08:52:49;99358.69;;;8.52;88.76
6532;BME280;3299;42.004;24.868;2022-12-29T08:55:14;99368.47;;;8.64;88.62
6532;BME280;3299;42.004;24.868;2022-12-29T08:57:40;99316.16;;;8.42;88.41
6532;BME280;3299;42.004;24.868;2022-12-29T09:00:06;99312.28;;;8.52;88.21
6532;BME280;3299;42.004;24.868;2022-12-29T09:02:31;99340.13;;;8.81;88.21
6532;BME280;3299;42.004;24.868;2022-12-29T09:04:57;99339.00;;;8.87;88.20
6532;BME280;3299;42.004;24.868;2022-12-29T09:07:24;99306.72;;;8.78;87.54
6532;BME280;3299;42.004;24.868;2022-12-29T09:09:49;99293.53;;;8.84;87.07
6532;BME280;3299;42.004;24.868;2022-12-29T09:12:16;99300.22;;;8.88;87.63
6532;BME280;3299;42.004;24.868;2022-12-29T09:14:42;99285.66;;;8.87;87.87
6532;BME280;3299;42.004;24.868;2022-12-29T09:17:09;99285.94;;;8.98;87.48
6532;BME280;3299;42.004;24.868;2022-12-29T09:19:54;99331.66;;;9.32;87.29
6532;BME280;3299;42.004;24.868;2022-12-29T09:22:20;99328.97;;;9.33;86.72
6532;BME280;3299;42.004;24.868;2022-12-29T09:24:45;99311.28;;;9.26;86.16
6532;BME280;3299;42.004;24.868;2022-12-29T09:27:11;99309.53;;;9.26;86.67
6532;BME280;3299;42.004;24.868;2022-12-29T09:29:36;99273.22;;;9.12;86.52
6532;BME280;3299;42.004;24.868;2022-12-29T09:32:02;99316.38;;;9.44;87.00
6532;BME280;3299;42.004;24.868;2022-12-29T09:34:27;99311.06;;;9.47;87.29
6532;BME280;3299;42.004;24.868;2022-12-29T09:36:52;99299.69;;;9.51;86.97
6532;BME280;3299;42.004;24.868;2022-12-29T09:39:18;99289.41;;;9.50;86.38
6532;BME280;3299;42.004;24.868;2022-12-29T09:41:57;99297.34;;;9.62;87.15
6532;BME280;3299;42.004;24.868;2022-12-29T09:47:26;99268.78;;;9.65;86.00
6532;BME280;3299;42.004;24.868;2022-12-29T09:49:56;99233.56;;;9.47;86.28
6532;BME280;3299;42.004;24.868;2022-12-29T09:52:30;99279.72;;;9.87;86.16
6532;BME280;3299;42.004;24.868;2022-12-29T09:55:18;99227.59;;;9.62;86.04
6532;BME280;3299;42.004;24.868;2022-12-29T09:57:48;99267.28;;;9.93;85.38
6532;BME280;3299;42.004;24.868;2022-12-29T10:00:19;99219.38;;;9.71;85.39
6532;BME280;3299;42.004;24.868;2022-12-29T10:02:52;99266.78;;;10.04;85.51
6532;BME280;3299;42.004;24.868;2022-12-29T10:05:26;99258.03;;;10.07;85.20
6532;BME280;3299;42.004;24.868;2022-12-29T10:16:43;99195.81;;;9.77;86.29
6532;BME280;3299;42.004;24.868;2022-12-29T10:24:04;99233.19;;;10.02;86.34
6532;BME280;3299;42.004;24.868;2022-12-29T10:26:39;99167.22;;;9.80;86.15
6532;BME280;3299;42.004;24.868;2022-12-29T10:29:31;99230.16;;;10.27;84.62
6532;BME280;3299;42.004;24.868;2022-12-29T10:32:05;99207.47;;;10.16;84.27
6532;BME280;3299;42.004;24.868;2022-12-29T10:34:36;99171.81;;;9.90;85.38
6532;BME280;3299;42.004;24.868;2022-12-29T10:37:09;99165.47;;;9.96;85.05
6532;BME280;3299;42.004;24.868;2022-12-29T10:39:43;99178.06;;;10.02;85.20
6532;BME280;3299;42.004;24.868;2022-12-29T10:42:28;99220.03;;;10.38;85.31
6532;BME280;3299;42.004;24.868;2022-12-29T10:44:54;99221.81;;;10.37;85.25
6532;BME280;3299;42.004;24.868;2022-12-29T10:47:27;99171.38;;;10.15;84.80
6532;BME280;3299;42.004;24.868;2022-12-29T10:49:54;99179.34;;;10.10;85.00
6532;BME280;3299;42.004;24.868;2022-12-29T10:52:20;99214.97;;;10.36;85.33
6532;BME280;3299;42.004;24.868;2022-12-29T10:55:00;99224.16;;;10.42;85.75
6532;BME280;3299;42.004;24.868;2022-12-29T10:59:57;99164.75;;;10.25;86.33
6532;BME280;3299;42.004;24.868;2022-12-29T11:07:58;99161.41;;;10.38;84.91
6532;BME280;3299;42.004;24.868;2022-12-29T11:13:01;99178.00;;;10.50;85.72
6532;BME280;3299;42.004;24.868;2022-12-29T11:15:28;99190.72;;;10.68;84.78
6532;BME280;3299;42.004;24.868;2022-12-29T11:18:03;99193.66;;;10.62;84.89
6532;BME280;3299;42.004;24.868;2022-12-29T11:20:37;99190.72;;;10.68;85.19
6532;BME280;3299;42.004;24.868;2022-12-29T11:23:05;99185.53;;;10.68;85.74
6532;BME280;3299;42.004;24.868;2022-12-29T11:25:45;99176.78;;;10.71;85.41
6532;BME280;3299;42.004;24.868;2022-12-29T11:28:15;99193.38;;;10.82;85.30
6532;BME280;3299;42.004;24.868;2022-12-29T11:30:42;99163.19;;;10.67;85.51
6532;BME280;3299;42.004;24.868;2022-12-29T11:33:08;99173.44;;;10.69;85.22
6532;BME280;3299;42.004;24.868;2022-12-29T11:35:42;99126.75;;;10.41;84.33
6532;BME280;3299;42.004;24.868;2022-12-29T11:38:22;99126.09;;;10.37;85.82
6532;BME280;3299;42.004;24.868;2022-12-29T11:40:50;99177.31;;;10.62;86.41
6532;BME280;3299;42.004;24.868;2022-12-29T11:43:26;99157.63;;;10.59;86.59
6532;BME280;3299;42.004;24.868;2022-12-29T11:45:55;99131.09;;;10.40;86.82
6532;BME280;3299;42.004;24.868;2022-12-29T11:48:22;99164.91;;;10.67;86.76
6532;BME280;3299;42.004;24.868;2022-12-29T11:50:56;99122.25;;;10.44;86.57
6532;BME280;3299;42.004;24.868;2022-12-29T11:53:28;99136.25;;;10.56;86.00
6532;BME280;3299;42.004;24.868;2022-12-29T11:55:59;99111.72;;;10.47;85.37
6532;BME280;3299;42.004;24.868;2022-12-29T11:58:33;99110.25;;;10.43;85.73
6532;BME280;3299;42.004;24.868;2022-12-29T12:04:13;99166.03;;;10.63;87.41
6532;BME280;3299;42.004;24.868;2022-12-29T12:09:19;99152.03;;;10.51;88.01
6532;BME280;3299;42.004;24.868;2022-12-29T12:11:51;99148.06;;;10.60;87.57
6532;BME280;3299;42.004;24.868;2022-12-29T12:14:45;99154.91;;;10.76;86.53
6532;BME280;3299;42.004;24.868;2022-12-29T12:17:18;99128.88;;;10.64;86.15
6532;BME280;3299;42.004;24.868;2022-12-29T12:22:31;99146.25;;;10.62;87.07
6532;BME280;3299;42.004;24.868;2022-12-29T12:25:03;99101.97;;;10.37;86.54
6532;BME280;3299;42.004;24.868;2022-12-29T12:30:24;99142.44;;;10.53;87.38
6532;BME280;3299;42.004;24.868;2022-12-29T12:33:04;99132.66;;;10.43;88.19
6532;BME280;3299;42.004;24.868;2022-12-29T12:44:01;99132.28;;;10.35;88.84
6532;BME280;3299;42.004;24.868;2022-12-29T12:46:36;99132.53;;;10.30;89.67
6532;BME280;3299;42.004;24.868;2022-12-29T13:00:08;99085.28;;;9.67;93.51
6532;BME280;3299;42.004;24.868;2022-12-29T13:16:29;99104.88;;;9.38;97.11
6532;BME280;3299;42.004;24.868;2022-12-29T13:19:14;99080.00;;;9.05;98.74
6532;BME280;3299;42.004;24.868;2022-12-29T13:26:58;99040.91;;;8.63;100.00
6532;BME280;3299;42.004;24.868;2022-12-29T13:29:41;99132.44;;;9.22;100.00
6532;BME280;3299;42.004;24.868;2022-12-29T13:32:43;99109.81;;;9.10;100.00
6532;BME280;3299;42.004;24.868;2022-12-29T13:40:45;99074.94;;;8.86;100.00
6532;BME280;3299;42.004;24.868;2022-12-29T13:43:13;99081.78;;;8.87;100.00
6532;BME280;3299;42.004;24.868;2022-12-29T13:45:41;99079.34;;;8.84;100.00
6532;BME280;3299;42.004;24.868;2022-12-29T13:48:15;99133.28;;;9.06;100.00
6532;BME280;3299;42.004;24.868;2022-12-29T13:50:45;99091.72;;;8.78;100.00
6532;BME280;3299;42.004;24.868;2022-12-29T13:53:41;99108.41;;;8.88;100.00
6532;BME280;3299;42.004;24.868;2022-12-29T13:56:21;99130.63;;;9.07;100.00
6532;BME280;3299;42.004;24.868;2022-12-29T13:59:09;99097.06;;;8.75;100.00
6532;BME280;3299;42.004;24.868;2022-12-29T14:01:59;99138.75;;;9.00;100.00
6532;BME280;3299;42.004;24.868;2022-12-29T14:04:29;99125.72;;;8.86;100.00
6532;BME280;3299;42.004;24.868;2022-12-29T14:07:24;99129.06;;;8.88;100.00
6532;BME280;3299;42.004;24.868;2022-12-29T14:09:54;99130.66;;;8.90;100.00
6532;BME280;3299;42.004;24.868;2022-12-29T14:12:38;99129.75;;;8.91;100.00
6532;BME280;3299;42.004;24.868;2022-12-29T14:17:39;99079.91;;;8.57;100.00
6532;BME280;3299;42.004;24.868;2022-12-29T14:20:16;99073.97;;;8.55;100.00
6532;BME280;3299;42.004;24.868;2022-12-29T14:23:14;99105.16;;;8.67;100.00
6532;BME280;3299;42.004;24.868;2022-12-29T14:26:00;99128.94;;;8.74;100.00
6532;BME280;3299;42.004;24.868;2022-12-29T14:33:41;99079.78;;;8.07;100.00
6532;BME280;3299;42.004;24.868;2022-12-29T14:36:37;99072.63;;;7.95;100.00
6532;BME280;3299;42.004;24.868;2022-12-29T14:39:05;99087.31;;;7.93;100.00
6532;BME280;3299;42.004;24.868;2022-12-29T14:41:59;99072.13;;;7.87;100.00
6532;BME280;3299;42.004;24.868;2022-12-29T14:44:25;99103.88;;;8.06;100.00
6532;BME280;3299;42.004;24.868;2022-12-29T14:49:21;99081.81;;;7.82;100.00
6532;BME280;3299;42.004;24.868;2022-12-29T14:51:51;99095.81;;;7.95;100.00
6532;BME280;3299;42.004;24.868;2022-12-29T14:57:02;99091.16;;;7.85;100.00
6532;BME280;3299;42.004;24.868;2022-12-29T14:59:30;99121.66;;;7.94;100.00
6532;BME280;3299;42.004;24.868;2022-12-29T15:01:57;99090.84;;;7.55;100.00
6532;BME280;3299;42.004;24.868;2022-12-29T15:04:30;99094.50;;;7.50;100.00
6532;BME280;3299;42.004;24.868;2022-12-29T15:06:56;99103.72;;;7.55;100.00
6532;BME280;3299;42.004;24.868;2022-12-29T15:09:35;99135.88;;;7.65;100.00
6532;BME280;3299;42.004;24.868;2022-12-29T15:15:01;99072.44;;;7.07;100.00
6532;BME280;3299;42.004;24.868;2022-12-29T15:17:31;99142.72;;;7.46;100.00
6532;BME280;3299;42.004;24.868;2022-12-29T15:19:58;99130.28;;;7.37;100.00
6532;BME280;3299;42.004;24.868;2022-12-29T15:22:25;99128.88;;;7.30;100.00
6532;BME280;3299;42.004;24.868;2022-12-29T15:24:55;99085.16;;;7.10;100.00
6532;BME280;3299;42.004;24.868;2022-12-29T15:27:25;99137.25;;;7.15;100.00
6532;BME280;3299;42.004;24.868;2022-12-29T15:29:59;99046.94;;;6.63;100.00
6532;BME280;3299;42.004;24.868;2022-12-29T15:32:29;99138.81;;;7.19;100.00
6532;BME280;3299;42.004;24.868;2022-12-29T15:37:53;99140.38;;;7.03;100.00